This is the latest recevied weather packets stored in our database for station/object WE0DX-1. If no packets are shown the sender has not sent any weather packets the latest 1 day(s).
| Time | Temp. | Humidity | Pressure | Rain* | Wind** | Luminosity | Snow |
|---|---|---|---|---|---|---|---|
| 1778096950 | 14.44° C | 33% | 1017.9 hPa | 0 mm | - | 628 W/m² | - |
| 1778095131 | 13.89° C | 34% | 1018 hPa | 0 mm | - | 271 W/m² | - |
| 1778094220 | 13.89° C | 34% | 1018.1 hPa | 0 mm | - | 681 W/m² | - |
| 1778093614 | 13.89° C | 36% | 1018 hPa | 0 mm | - | 722 W/m² | - |
| 1778092706 | 13.89° C | 34% | 1018.3 hPa | 0 mm | - | 708 W/m² | - |
| 1778092098 | 13.89° C | 36% | 1018.7 hPa | 0 mm | - | 536 W/m² | - |
| 1778091795 | 14.44° C | 34% | 1018.4 hPa | 0 mm | - | 760 W/m² | - |
| 1778088153 | 12.78° C | 36% | 1018.5 hPa | 0 mm | - | 350 W/m² | - |
| 1778086029 | 13.89° C | 37% | 1018.6 hPa | 0 mm | - | 556 W/m² | - |
| 1778085726 | 13.89° C | 38% | 1018.6 hPa | 0 mm | - | 778 W/m² | - |
| 1778085117 | 12.78° C | 39% | 1018.6 hPa | 0 mm | - | 373 W/m² | - |
| 1778084511 | 13.89° C | 38% | 1018.7 hPa | 0 mm | - | 396 W/m² | - |
| 1778083602 | 12.78° C | 36% | 1018.7 hPa | 0 mm | - | 791 W/m² | - |
| 1778082694 | 12.22° C | 40% | 1018.2 hPa | 0 mm | - | 763 W/m² | - |
| 1778081556 | 11.67° C | 38% | 1018.2 hPa | 0 mm | - | 242 W/m² | - |
| 1778081253 | 12.22° C | 39% | 1018.2 hPa | 0 mm | - | 420 W/m² | - |
| 1778080950 | 12.22° C | 40% | 1018.1 hPa | 0 mm | - | 429 W/m² | - |
| 1778080345 | 12.22° C | 40% | 1018.3 hPa | 0 mm | - | 561 W/m² | - |
| 1778079739 | 12.22° C | 45% | 1018.3 hPa | 0 mm | - | 492 W/m² | - |
| 1778078830 | 11.67° C | 47% | 1018.5 hPa | 0 mm | - | 438 W/m² | - |
| 1778077318 | 11.11° C | 57% | 1018 hPa | 0 mm | - | 304 W/m² | - |
| 1778076108 | 10.56° C | 58% | 1017.7 hPa | 0 mm | - | 208 W/m² | - |
| 1778075501 | 10° C | 61% | 1017.6 hPa | 0 mm | - | 144 W/m² | - |
| 1778074591 | 9.44° C | 62% | 1017.7 hPa | 0 mm | - | 115 W/m² | - |
| 1778073682 | 9.44° C | 65% | 1017.4 hPa | 0 mm | - | 108 W/m² | - |
* Rain latest hour (hover to see other rain measurements)
** Current wind speed in m/s (hover to see current wind gust speed)